createdAt,value
2023-09-29T00:01:50.468Z,4.27
2023-09-29T00:04:22.270Z,4.53
2023-09-29T00:06:54.290Z,3.87
2023-09-29T00:09:26.137Z,3.97
2023-09-29T00:11:59.965Z,3.73
2023-09-29T00:14:31.776Z,3.90
2023-09-29T00:17:03.559Z,3.83
2023-09-29T00:19:35.515Z,4.00
2023-09-29T00:22:07.900Z,4.03
2023-09-29T00:24:40.421Z,3.90
2023-09-29T00:27:12.179Z,4.83
2023-09-29T00:29:44.013Z,5.50
2023-09-29T00:32:16.070Z,4.67
2023-09-29T00:34:48.087Z,4.60
2023-09-29T00:37:20.610Z,4.07
2023-09-29T00:39:53.758Z,3.93
2023-09-29T00:42:25.569Z,5.07
2023-09-29T00:44:59.339Z,4.53
2023-09-29T00:47:32.918Z,4.80
2023-09-29T00:50:11.824Z,5.03
2023-09-29T00:52:44.410Z,4.93
2023-09-29T00:55:18.763Z,4.70
2023-09-29T00:57:52.197Z,4.10
2023-09-29T01:00:30.228Z,4.17
2023-09-29T01:03:06.522Z,3.60
2023-09-29T01:05:40.796Z,4.23
2023-09-29T01:08:16.938Z,4.87
2023-09-29T01:10:50.215Z,4.57
2023-09-29T01:13:23.683Z,4.50
2023-09-29T01:15:55.653Z,4.60
2023-09-29T01:18:27.625Z,3.93
2023-09-29T01:20:59.523Z,4.10
2023-09-29T01:23:35.970Z,3.70
2023-09-29T01:26:09.148Z,3.67
2023-09-29T01:28:41.099Z,4.37
2023-09-29T01:31:12.925Z,3.07
2023-09-29T01:33:45.715Z,4.03
2023-09-29T01:36:17.793Z,3.93
2023-09-29T01:38:50.866Z,3.60
2023-09-29T01:41:23.148Z,3.93
2023-09-29T01:43:54.971Z,3.70
2023-09-29T01:46:26.733Z,4.10
2023-09-29T01:48:59.353Z,3.63
2023-09-29T01:51:31.425Z,3.97
2023-09-29T01:54:03.661Z,3.90
2023-09-29T01:56:36.003Z,3.23
2023-09-29T01:59:07.892Z,3.83
2023-09-29T02:01:39.645Z,3.30
2023-09-29T02:04:11.485Z,4.00
2023-09-29T02:06:44.112Z,4.17
2023-09-29T02:09:17.817Z,3.70
2023-09-29T02:11:50.896Z,3.63
2023-09-29T02:14:22.702Z,3.77
2023-09-29T02:16:54.663Z,3.87
2023-09-29T02:19:26.451Z,3.40
2023-09-29T02:21:58.226Z,3.50
2023-09-29T02:24:30.573Z,3.47
2023-09-29T02:27:02.696Z,4.30
2023-09-29T02:29:34.500Z,3.87
2023-09-29T02:32:06.287Z,4.07
2023-09-29T02:34:39.149Z,3.73
2023-09-29T02:37:12.034Z,4.77
2023-09-29T02:39:44.231Z,4.07
2023-09-29T02:42:15.985Z,3.97
2023-09-29T02:44:47.761Z,4.40
2023-09-29T02:47:19.543Z,3.97
2023-09-29T02:49:51.306Z,3.67
2023-09-29T02:52:23.086Z,4.17
2023-09-29T02:54:57.850Z,4.20
2023-09-29T02:57:30.249Z,3.70
2023-09-29T03:00:20.343Z,3.30
2023-09-29T03:02:53.032Z,3.60
2023-09-29T03:05:26.755Z,3.47
2023-09-29T03:07:58.551Z,2.80
2023-09-29T03:10:30.452Z,3.17
2023-09-29T03:13:02.266Z,3.83
2023-09-29T03:15:34.013Z,3.20
2023-09-29T03:18:07.062Z,3.60
2023-09-29T03:20:39.141Z,3.70
2023-09-29T03:23:11.109Z,3.97
2023-09-29T03:25:42.898Z,3.63
2023-09-29T03:28:14.632Z,3.30
2023-09-29T03:30:46.414Z,3.83
2023-09-29T03:33:18.616Z,5.57
2023-09-29T03:35:50.515Z,5.27
2023-09-29T03:38:22.370Z,5.30
2023-09-29T03:40:54.794Z,6.00
2023-09-29T03:43:26.567Z,6.27
2023-09-29T03:45:58.353Z,7.40
2023-09-29T03:48:30.332Z,6.93
2023-09-29T03:51:04.010Z,6.57
2023-09-29T03:53:36.171Z,7.43
2023-09-29T03:56:08.134Z,5.20
2023-09-29T03:58:40.047Z,4.57
2023-09-29T04:01:11.868Z,4.90
2023-09-29T04:03:44.048Z,4.73
2023-09-29T04:06:16.103Z,4.87
2023-09-29T04:08:48.282Z,4.90
2023-09-29T04:11:20.203Z,4.00
2023-09-29T04:13:51.939Z,4.37
2023-09-29T04:16:23.716Z,4.23
2023-09-29T04:18:56.617Z,3.40
2023-09-29T04:21:28.649Z,3.67
2023-09-29T04:24:00.527Z,4.50
2023-09-29T04:26:32.348Z,4.10
2023-09-29T04:29:04.863Z,4.33
2023-09-29T04:31:36.717Z,3.83
2023-09-29T04:34:08.660Z,4.30
2023-09-29T04:36:41.913Z,3.50
2023-09-29T04:39:13.730Z,4.07
2023-09-29T04:41:46.011Z,4.17
2023-09-29T04:44:17.977Z,4.13
2023-09-29T04:46:50.406Z,4.53
2023-09-29T04:49:22.221Z,4.53
2023-09-29T04:51:53.972Z,4.63
2023-09-29T04:54:25.754Z,4.50
2023-09-29T04:56:57.562Z,4.30
2023-09-29T04:59:29.429Z,4.80
2023-09-29T05:02:01.392Z,4.27
2023-09-29T05:04:34.370Z,4.43
2023-09-29T05:07:06.221Z,4.87
2023-09-29T05:09:37.953Z,5.13
2023-09-29T05:12:09.716Z,4.93
2023-09-29T05:14:42.308Z,5.40
2023-09-29T05:17:14.107Z,5.73
2023-09-29T05:19:45.979Z,5.10
2023-09-29T05:22:17.783Z,5.33
2023-09-29T05:24:50.776Z,5.57
2023-09-29T05:27:22.622Z,5.93
2023-09-29T05:29:54.380Z,5.20
2023-09-29T05:32:26.173Z,5.87
2023-09-29T05:34:57.952Z,5.33
2023-09-29T05:37:31.253Z,5.53
2023-09-29T05:40:04.160Z,4.43
2023-09-29T05:42:51.024Z,5.37
2023-09-29T05:45:24.708Z,5.87
2023-09-29T05:47:57.305Z,5.50
2023-09-29T05:50:29.087Z,5.33
2023-09-29T05:53:09.946Z,5.37
2023-09-29T05:55:43.511Z,4.57
2023-09-29T05:58:15.495Z,4.47
2023-09-29T06:00:47.419Z,4.93
2023-09-29T06:03:19.277Z,6.20
2023-09-29T06:05:51.108Z,6.37
2023-09-29T06:08:22.877Z,5.60
2023-09-29T06:10:54.625Z,5.40
2023-09-29T06:13:26.425Z,5.17
2023-09-29T06:15:58.657Z,5.20
2023-09-29T06:18:30.755Z,5.37
2023-09-29T06:21:02.804Z,6.27
2023-09-29T06:23:34.613Z,7.27
2023-09-29T06:26:06.383Z,7.07
2023-09-29T06:28:39.718Z,7.33
2023-09-29T06:31:11.592Z,7.20
2023-09-29T06:33:43.528Z,7.63
2023-09-29T06:36:16.139Z,7.70
2023-09-29T06:38:48.396Z,7.37
2023-09-29T06:41:20.151Z,7.03
2023-09-29T06:43:54.325Z,9.50
2023-09-29T06:46:26.764Z,7.73
2023-09-29T06:48:59.618Z,7.37
2023-09-29T06:51:31.552Z,8.80
2023-09-29T06:54:03.944Z,9.17
2023-09-29T06:56:35.882Z,8.97
2023-09-29T06:59:09.948Z,8.70
2023-09-29T07:01:41.998Z,9.03
2023-09-29T07:04:13.996Z,8.73
2023-09-29T07:06:45.908Z,8.37
2023-09-29T07:09:17.770Z,8.83
2023-09-29T07:11:49.672Z,9.20
2023-09-29T07:14:21.600Z,10.23
2023-09-29T07:16:55.443Z,9.67
2023-09-29T07:19:32.637Z,10.67
2023-09-29T07:22:10.282Z,10.37
2023-09-29T07:24:43.074Z,12.07
2023-09-29T07:27:14.884Z,11.23
2023-09-29T07:29:46.714Z,11.23
2023-09-29T07:32:18.489Z,10.70
2023-09-29T07:34:50.233Z,11.20
2023-09-29T07:37:21.972Z,11.37
2023-09-29T07:39:53.761Z,11.20
2023-09-29T07:42:25.549Z,11.80
2023-09-29T07:44:58.569Z,12.03
2023-09-29T07:47:30.342Z,11.43
2023-09-29T07:50:02.242Z,11.87
2023-09-29T07:52:38.339Z,12.47
2023-09-29T07:55:13.490Z,11.20
2023-09-29T07:57:45.328Z,12.17
2023-09-29T08:00:18.006Z,12.43
2023-09-29T08:02:49.939Z,12.20
2023-09-29T08:05:21.825Z,12.10
2023-09-29T08:07:53.881Z,10.73
2023-09-29T08:10:25.724Z,12.80
2023-09-29T08:12:57.529Z,11.60
2023-09-29T08:15:32.406Z,11.53
2023-09-29T08:18:04.701Z,11.43
2023-09-29T08:20:36.605Z,12.57
2023-09-29T08:23:08.428Z,12.67
2023-09-29T08:25:43.458Z,12.57
2023-09-29T08:28:15.320Z,11.83
2023-09-29T08:30:47.196Z,11.70
2023-09-29T08:33:28.144Z,11.33
2023-09-29T08:36:08.217Z,11.40
2023-09-29T08:38:40.216Z,13.00
2023-09-29T08:41:12.735Z,11.77
2023-09-29T08:43:55.973Z,12.27
2023-09-29T08:46:41.688Z,11.07
2023-09-29T08:49:17.043Z,11.77
2023-09-29T08:51:50.447Z,12.60
2023-09-29T08:54:25.008Z,11.07
2023-09-29T08:56:59.688Z,12.57
2023-09-29T08:59:31.844Z,11.77
2023-09-29T09:02:03.676Z,11.40
2023-09-29T09:04:35.627Z,11.17
2023-09-29T09:07:07.497Z,12.23
2023-09-29T09:09:45.674Z,10.33
2023-09-29T09:12:18.528Z,10.57
2023-09-29T09:14:50.386Z,10.73
2023-09-29T09:17:22.222Z,10.80
2023-09-29T09:19:55.174Z,11.13
2023-09-29T09:22:39.342Z,10.47
2023-09-29T09:25:16.394Z,10.77
2023-09-29T09:27:53.588Z,10.40
2023-09-29T09:30:26.208Z,10.27
2023-09-29T09:32:58.213Z,10.87
2023-09-29T09:35:31.166Z,9.33
2023-09-29T09:38:04.113Z,10.97
2023-09-29T09:40:36.270Z,10.83
2023-09-29T09:43:09.913Z,10.00
2023-09-29T09:45:44.178Z,9.93
2023-09-29T09:48:21.790Z,10.60
2023-09-29T09:50:57.267Z,10.10
2023-09-29T09:53:33.516Z,10.20
2023-09-29T09:56:15.834Z,9.53
2023-09-29T09:58:52.104Z,10.40
2023-09-29T10:01:25.462Z,9.53
2023-09-29T10:03:58.221Z,10.30
2023-09-29T10:06:31.379Z,9.93
2023-09-29T10:09:08.806Z,9.53
2023-09-29T10:11:44.079Z,9.17
2023-09-29T10:14:16.042Z,9.27
2023-09-29T10:16:47.884Z,8.77
2023-09-29T10:19:19.828Z,8.70
2023-09-29T10:21:53.507Z,7.67
2023-09-29T10:24:29.028Z,8.43
2023-09-29T10:27:04.593Z,8.60
2023-09-29T10:29:39.014Z,7.57
2023-09-29T10:32:14.988Z,8.00
2023-09-29T10:34:46.804Z,8.20
2023-09-29T10:37:20.308Z,6.77
2023-09-29T10:39:52.141Z,7.30
2023-09-29T10:42:26.832Z,7.70
2023-09-29T10:44:58.625Z,7.33
2023-09-29T10:47:37.345Z,6.83
2023-09-29T10:50:12.564Z,6.33
2023-09-29T10:52:44.552Z,7.03
2023-09-29T10:55:16.576Z,6.57
2023-09-29T10:57:50.026Z,7.13
2023-09-29T11:00:22.009Z,7.00
2023-09-29T11:02:54.679Z,6.77
2023-09-29T11:05:27.425Z,5.90
2023-09-29T11:08:00.039Z,5.93
2023-09-29T11:10:31.838Z,5.90
2023-09-29T11:13:03.793Z,5.60
2023-09-29T11:15:38.979Z,6.30
2023-09-29T11:18:10.777Z,5.43
2023-09-29T11:20:52.737Z,5.70
2023-09-29T11:23:25.565Z,5.80
2023-09-29T11:26:05.261Z,5.63
2023-09-29T11:28:55.113Z,5.50
2023-09-29T11:31:26.909Z,5.00
2023-09-29T11:33:58.850Z,4.93
2023-09-29T11:36:30.839Z,4.67
2023-09-29T11:39:04.002Z,5.27
2023-09-29T11:41:37.146Z,4.53
2023-09-29T11:44:09.274Z,4.60
2023-09-29T11:46:41.059Z,4.97
2023-09-29T11:49:13.489Z,4.40
2023-09-29T11:51:45.699Z,4.70
2023-09-29T11:54:17.569Z,4.90
2023-09-29T11:56:49.394Z,4.30
2023-09-29T11:59:21.846Z,4.17
2023-09-29T12:01:53.759Z,3.80
2023-09-29T12:04:25.620Z,3.27
2023-09-29T12:06:57.409Z,4.50
2023-09-29T12:09:29.206Z,3.40
2023-09-29T12:12:02.796Z,3.87
2023-09-29T12:14:35.516Z,3.77
2023-09-29T12:17:07.337Z,3.63
2023-09-29T12:19:39.512Z,3.90
2023-09-29T12:22:11.344Z,3.30
2023-09-29T12:24:43.132Z,3.33
2023-09-29T12:27:14.965Z,3.57
2023-09-29T12:29:47.208Z,3.40
2023-09-29T12:32:19.359Z,3.90
2023-09-29T12:34:51.350Z,3.03
2023-09-29T12:37:23.152Z,2.67
2023-09-29T12:39:55.225Z,3.73
2023-09-29T12:42:27.006Z,3.20
2023-09-29T12:44:58.809Z,3.03
2023-09-29T12:47:30.623Z,3.30
2023-09-29T12:50:02.728Z,2.90
2023-09-29T12:52:34.784Z,2.67
2023-09-29T12:55:07.449Z,2.90
2023-09-29T12:57:40.081Z,3.17
2023-09-29T13:00:20.665Z,3.10
2023-09-29T13:02:55.152Z,3.03
2023-09-29T13:05:27.220Z,3.27
2023-09-29T13:07:59.932Z,3.07
2023-09-29T13:10:40.787Z,2.83
2023-09-29T13:13:12.579Z,2.83
2023-09-29T13:15:44.348Z,2.60
2023-09-29T13:18:16.200Z,2.13
2023-09-29T13:20:49.792Z,2.50
2023-09-29T13:23:22.878Z,2.73
2023-09-29T13:25:54.649Z,2.93
2023-09-29T13:28:28.882Z,2.70
2023-09-29T13:31:02.572Z,2.47
2023-09-29T13:33:34.981Z,2.57
2023-09-29T13:36:07.406Z,2.57
2023-09-29T13:38:39.352Z,2.70
2023-09-29T13:41:11.766Z,2.40
2023-09-29T13:43:44.410Z,2.30
2023-09-29T13:46:16.983Z,2.50
2023-09-29T13:48:49.303Z,2.40
2023-09-29T13:51:21.233Z,2.40
2023-09-29T13:53:53.818Z,2.23
2023-09-29T13:56:26.759Z,2.63
2023-09-29T13:59:00.393Z,2.50
2023-09-29T14:01:32.280Z,2.57
2023-09-29T14:04:04.517Z,2.10
2023-09-29T14:06:36.489Z,2.27
2023-09-29T14:09:17.030Z,2.13
2023-09-29T14:11:51.210Z,1.93
2023-09-29T14:14:23.118Z,2.03
2023-09-29T14:16:54.893Z,2.60
2023-09-29T14:19:26.935Z,2.37
2023-09-29T14:21:58.762Z,2.03
2023-09-29T14:24:32.433Z,2.60
2023-09-29T14:27:06.615Z,2.40
2023-09-29T14:29:38.582Z,2.20
2023-09-29T14:32:10.972Z,2.40
2023-09-29T14:34:42.860Z,2.53
2023-09-29T14:37:14.784Z,2.30
2023-09-29T14:39:46.616Z,2.53
2023-09-29T14:42:18.581Z,2.27
2023-09-29T14:44:50.554Z,2.20
2023-09-29T14:47:22.412Z,2.47
2023-09-29T14:49:56.095Z,2.10
2023-09-29T14:52:28.560Z,2.43
2023-09-29T14:55:07.009Z,2.37
2023-09-29T14:57:39.103Z,2.30
2023-09-29T15:00:11.509Z,2.47
2023-09-29T15:02:43.790Z,2.50
2023-09-29T15:05:15.732Z,2.30
2023-09-29T15:07:48.281Z,2.30
2023-09-29T15:10:20.068Z,2.43
2023-09-29T15:12:51.843Z,2.63
2023-09-29T15:15:23.839Z,2.40
2023-09-29T15:17:55.711Z,2.60
2023-09-29T15:20:28.453Z,2.87
2023-09-29T15:23:00.267Z,2.30
2023-09-29T15:25:34.771Z,2.40
2023-09-29T15:28:08.150Z,2.33
2023-09-29T15:30:46.091Z,2.27
2023-09-29T15:33:18.069Z,2.20
2023-09-29T15:35:53.055Z,2.67
2023-09-29T15:38:26.182Z,2.20
2023-09-29T15:40:57.990Z,2.40
2023-09-29T15:43:29.832Z,2.10
2023-09-29T15:46:14.776Z,2.60
2023-09-29T15:48:47.269Z,2.43
2023-09-29T15:51:19.222Z,2.23
2023-09-29T15:53:51.212Z,2.47
2023-09-29T15:56:23.079Z,2.40
2023-09-29T15:58:55.304Z,2.87
2023-09-29T16:01:27.457Z,2.60
2023-09-29T16:04:01.668Z,2.47
2023-09-29T16:06:33.927Z,2.50
2023-09-29T16:09:07.444Z,2.63
2023-09-29T16:11:39.746Z,2.30
2023-09-29T16:14:12.078Z,2.43
2023-09-29T16:16:44.221Z,2.50
2023-09-29T16:19:16.503Z,2.50
2023-09-29T16:21:48.433Z,2.00
2023-09-29T16:24:20.289Z,2.40
2023-09-29T16:26:52.879Z,2.37
2023-09-29T16:29:24.853Z,2.30
2023-09-29T16:31:56.678Z,2.80
2023-09-29T16:34:29.387Z,2.47
2023-09-29T16:37:01.264Z,2.67
2023-09-29T16:39:33.365Z,2.63
2023-09-29T16:42:05.288Z,2.43
2023-09-29T16:44:38.327Z,2.80
2023-09-29T16:47:10.959Z,2.73
2023-09-29T16:49:42.749Z,2.73
2023-09-29T16:52:14.773Z,2.57
2023-09-29T16:54:46.700Z,2.77
2023-09-29T16:57:18.602Z,2.60
2023-09-29T16:59:50.564Z,2.70
2023-09-29T17:02:22.336Z,2.63
2023-09-29T17:04:54.247Z,2.67
2023-09-29T17:07:26.269Z,2.37
2023-09-29T17:09:58.065Z,2.37
2023-09-29T17:12:30.067Z,2.57
2023-09-29T17:15:03.109Z,2.87
2023-09-29T17:17:35.120Z,2.77
2023-09-29T17:20:07.403Z,3.30
2023-09-29T17:22:39.169Z,2.57
2023-09-29T17:25:11.080Z,3.10
2023-09-29T17:27:42.843Z,3.00
2023-09-29T17:30:14.905Z,3.10
2023-09-29T17:32:47.577Z,2.90
2023-09-29T17:35:19.472Z,2.63
2023-09-29T17:37:53.300Z,2.93
2023-09-29T17:40:25.100Z,3.03
2023-09-29T17:42:56.877Z,3.43
2023-09-29T17:45:29.661Z,2.90
2023-09-29T17:48:02.133Z,2.87
2023-09-29T17:50:40.689Z,2.90
2023-09-29T17:53:12.605Z,3.13
2023-09-29T17:55:44.378Z,2.93
2023-09-29T17:58:18.709Z,3.17
2023-09-29T18:00:51.073Z,2.73
2023-09-29T18:03:22.982Z,2.73
2023-09-29T18:05:54.878Z,2.90
2023-09-29T18:08:27.075Z,2.90
2023-09-29T18:10:59.587Z,2.97
2023-09-29T18:13:31.770Z,2.70
2023-09-29T18:16:06.596Z,2.93
2023-09-29T18:18:38.784Z,2.80
2023-09-29T18:21:10.686Z,2.80
2023-09-29T18:23:42.591Z,3.00
2023-09-29T18:26:14.516Z,2.80
2023-09-29T18:28:47.869Z,2.90
2023-09-29T18:31:19.759Z,3.10
2023-09-29T18:33:51.631Z,2.97
2023-09-29T18:36:23.548Z,3.47
2023-09-29T18:38:55.721Z,3.30
2023-09-29T18:41:27.811Z,2.87
2023-09-29T18:43:59.574Z,2.67
2023-09-29T18:46:31.490Z,2.83
2023-09-29T18:49:03.318Z,3.20
2023-09-29T18:51:35.410Z,2.87
2023-09-29T18:54:07.286Z,2.87
2023-09-29T18:56:42.011Z,2.90
2023-09-29T18:59:13.969Z,3.00
2023-09-29T19:01:45.838Z,2.77
2023-09-29T19:04:17.753Z,3.10
2023-09-29T19:06:49.537Z,2.90
2023-09-29T19:09:22.600Z,2.57
2023-09-29T19:11:57.178Z,3.20
2023-09-29T19:14:29.885Z,3.10
2023-09-29T19:17:01.711Z,3.03
2023-09-29T19:19:34.665Z,2.80
2023-09-29T19:22:06.422Z,2.70
2023-09-29T19:24:39.065Z,2.90
2023-09-29T19:27:10.900Z,3.47
2023-09-29T19:29:42.664Z,2.87
2023-09-29T19:32:14.498Z,3.10
2023-09-29T19:34:46.315Z,2.50
2023-09-29T19:37:18.134Z,3.47
2023-09-29T19:39:53.135Z,3.47
2023-09-29T19:42:24.994Z,3.43
2023-09-29T19:44:56.925Z,3.37
2023-09-29T19:47:28.761Z,3.20
2023-09-29T19:50:00.739Z,2.97
2023-09-29T19:52:32.515Z,3.10
2023-09-29T19:55:05.377Z,2.90
2023-09-29T19:57:37.948Z,3.10
2023-09-29T20:00:11.324Z,2.87
2023-09-29T20:02:45.954Z,3.30
2023-09-29T20:05:18.106Z,2.97
2023-09-29T20:07:50.562Z,2.70
2023-09-29T20:10:22.366Z,3.13
2023-09-29T20:12:54.118Z,3.17
2023-09-29T20:15:25.937Z,2.47
2023-09-29T20:17:57.797Z,2.80
2023-09-29T20:20:30.366Z,2.90
2023-09-29T20:23:03.439Z,2.77
2023-09-29T20:25:35.593Z,2.60
2023-09-29T20:28:07.449Z,2.90
2023-09-29T20:30:41.002Z,2.57
2023-09-29T20:33:13.586Z,2.67
2023-09-29T20:35:45.394Z,2.70
2023-09-29T20:38:17.218Z,2.67
2023-09-29T20:40:49.570Z,3.00
2023-09-29T20:43:21.439Z,3.50
2023-09-29T20:45:53.566Z,3.67
2023-09-29T20:48:26.087Z,5.30
2023-09-29T20:50:57.883Z,6.03
2023-09-29T20:53:29.992Z,7.50
2023-09-29T20:56:01.821Z,8.73
2023-09-29T20:58:34.172Z,8.50
2023-09-29T21:01:06.772Z,8.80
2023-09-29T21:03:39.216Z,8.67
2023-09-29T21:06:11.097Z,8.43
2023-09-29T21:08:43.414Z,8.73
2023-09-29T21:11:15.558Z,10.23
2023-09-29T21:13:47.296Z,8.53
2023-09-29T21:16:19.159Z,9.20
2023-09-29T21:18:50.967Z,9.90
2023-09-29T21:21:22.845Z,9.83
2023-09-29T21:23:54.714Z,10.90
2023-09-29T21:26:26.634Z,9.73
2023-09-29T21:28:58.701Z,9.50
2023-09-29T21:31:30.595Z,9.37
2023-09-29T21:34:02.445Z,10.47
2023-09-29T21:36:35.008Z,10.60
2023-09-29T21:39:08.889Z,10.23
2023-09-29T21:41:42.662Z,9.87
2023-09-29T21:44:15.105Z,10.87
2023-09-29T21:46:46.988Z,10.20
2023-09-29T21:49:19.808Z,9.77
2023-09-29T21:51:52.092Z,9.10
2023-09-29T21:54:24.019Z,9.77
2023-09-29T21:56:55.846Z,8.97
2023-09-29T21:59:27.583Z,8.57
2023-09-29T22:01:59.568Z,9.27
2023-09-29T22:04:31.408Z,10.23
2023-09-29T22:07:03.321Z,9.20
2023-09-29T22:09:35.111Z,8.70
2023-09-29T22:12:06.897Z,8.87
2023-09-29T22:14:38.954Z,8.63
2023-09-29T22:17:11.856Z,8.27
2023-09-29T22:19:43.809Z,8.70
2023-09-29T22:22:15.768Z,8.73
2023-09-29T22:24:48.507Z,8.87
2023-09-29T22:27:20.362Z,9.47
2023-09-29T22:29:52.367Z,8.87
2023-09-29T22:32:24.288Z,9.80
2023-09-29T22:34:56.112Z,8.77
2023-09-29T22:37:28.027Z,9.33
2023-09-29T22:40:00.516Z,9.03
2023-09-29T22:42:32.372Z,8.73
2023-09-29T22:45:07.212Z,8.90
2023-09-29T22:47:39.004Z,9.77
2023-09-29T22:50:11.461Z,9.30
2023-09-29T22:52:43.990Z,8.77
2023-09-29T22:55:16.397Z,8.40
2023-09-29T22:57:48.464Z,8.90
2023-09-29T23:00:20.403Z,7.77
2023-09-29T23:02:52.308Z,9.50
2023-09-29T23:05:24.227Z,8.80
2023-09-29T23:07:56.020Z,9.03
2023-09-29T23:10:27.855Z,7.20
2023-09-29T23:12:59.784Z,8.10
2023-09-29T23:15:31.545Z,7.83
2023-09-29T23:18:03.608Z,8.63
2023-09-29T23:20:37.678Z,7.60
2023-09-29T23:23:09.649Z,7.37
2023-09-29T23:25:42.826Z,8.20
2023-09-29T23:28:16.074Z,7.40
2023-09-29T23:30:48.248Z,7.67
2023-09-29T23:33:20.659Z,7.70
2023-09-29T23:35:52.440Z,8.53
2023-09-29T23:38:24.225Z,7.67
2023-09-29T23:40:56.801Z,7.97
2023-09-29T23:43:28.538Z,7.53
2023-09-29T23:46:04.486Z,7.30
2023-09-29T23:48:36.401Z,7.87
2023-09-29T23:51:08.713Z,7.97
2023-09-29T23:53:40.618Z,7.47
2023-09-29T23:56:12.497Z,7.30
2023-09-29T23:58:44.361Z,8.20
